sensor_id;sensor_type;location;lat;lon;timestamp;P1;durP1;ratioP1;P2;durP2;ratioP2
5688;SDS011;2869;50.432;8.680;2023-08-01T00:01:46;1.90;;;1.80;;
5688;SDS011;2869;50.432;8.680;2023-08-01T00:04:13;2.63;;;2.00;;
5688;SDS011;2869;50.432;8.680;2023-08-01T00:06:41;6.03;;;1.87;;
5688;SDS011;2869;50.432;8.680;2023-08-01T00:09:09;2.10;;;1.90;;
5688;SDS011;2869;50.432;8.680;2023-08-01T00:11:36;2.03;;;1.90;;
5688;SDS011;2869;50.432;8.680;2023-08-01T00:14:02;2.80;;;1.93;;
5688;SDS011;2869;50.432;8.680;2023-08-01T00:16:29;3.37;;;1.93;;
5688;SDS011;2869;50.432;8.680;2023-08-01T00:18:57;2.20;;;2.00;;
5688;SDS011;2869;50.432;8.680;2023-08-01T00:21:24;3.20;;;1.90;;
5688;SDS011;2869;50.432;8.680;2023-08-01T00:23:50;4.83;;;2.30;;
5688;SDS011;2869;50.432;8.680;2023-08-01T00:26:19;2.20;;;2.00;;
5688;SDS011;2869;50.432;8.680;2023-08-01T00:28:45;2.70;;;2.40;;
5688;SDS011;2869;50.432;8.680;2023-08-01T00:31:12;3.47;;;1.90;;
5688;SDS011;2869;50.432;8.680;2023-08-01T00:33:39;2.03;;;1.77;;
5688;SDS011;2869;50.432;8.680;2023-08-01T00:36:05;3.10;;;1.80;;
5688;SDS011;2869;50.432;8.680;2023-08-01T00:38:36;3.00;;;2.07;;
5688;SDS011;2869;50.432;8.680;2023-08-01T00:41:03;2.73;;;1.77;;
5688;SDS011;2869;50.432;8.680;2023-08-01T00:43:31;2.90;;;1.70;;
5688;SDS011;2869;50.432;8.680;2023-08-01T00:45:58;6.17;;;2.17;;
5688;SDS011;2869;50.432;8.680;2023-08-01T00:48:26;2.97;;;2.77;;
5688;SDS011;2869;50.432;8.680;2023-08-01T00:50:53;3.10;;;2.73;;
5688;SDS011;2869;50.432;8.680;2023-08-01T00:53:21;3.13;;;2.77;;
5688;SDS011;2869;50.432;8.680;2023-08-01T00:55:48;3.80;;;3.47;;
5688;SDS011;2869;50.432;8.680;2023-08-01T00:58:17;4.37;;;3.03;;
5688;SDS011;2869;50.432;8.680;2023-08-01T01:00:45;5.20;;;4.43;;
5688;SDS011;2869;50.432;8.680;2023-08-01T01:03:13;3.93;;;3.53;;
5688;SDS011;2869;50.432;8.680;2023-08-01T01:05:45;4.47;;;3.73;;
5688;SDS011;2869;50.432;8.680;2023-08-01T01:08:15;4.27;;;3.87;;
5688;SDS011;2869;50.432;8.680;2023-08-01T01:10:42;4.57;;;3.30;;
5688;SDS011;2869;50.432;8.680;2023-08-01T01:13:09;4.33;;;3.07;;
5688;SDS011;2869;50.432;8.680;2023-08-01T01:15:35;4.10;;;2.70;;
5688;SDS011;2869;50.432;8.680;2023-08-01T01:18:04;2.30;;;2.10;;
5688;SDS011;2869;50.432;8.680;2023-08-01T01:20:33;2.40;;;2.20;;
5688;SDS011;2869;50.432;8.680;2023-08-01T01:23:01;1.97;;;1.77;;
5688;SDS011;2869;50.432;8.680;2023-08-01T01:25:30;1.90;;;1.70;;
5688;SDS011;2869;50.432;8.680;2023-08-01T01:27:58;2.23;;;2.03;;
5688;SDS011;2869;50.432;8.680;2023-08-01T01:30:26;2.40;;;2.20;;
5688;SDS011;2869;50.432;8.680;2023-08-01T01:32:54;1.93;;;1.70;;
5688;SDS011;2869;50.432;8.680;2023-08-01T01:35:21;2.50;;;2.20;;
5688;SDS011;2869;50.432;8.680;2023-08-01T01:37:49;1.70;;;1.60;;
5688;SDS011;2869;50.432;8.680;2023-08-01T01:40:16;1.90;;;1.80;;
5688;SDS011;2869;50.432;8.680;2023-08-01T01:42:43;3.53;;;1.80;;
5688;SDS011;2869;50.432;8.680;2023-08-01T01:45:10;1.67;;;1.57;;
5688;SDS011;2869;50.432;8.680;2023-08-01T01:47:37;1.70;;;1.50;;
5688;SDS011;2869;50.432;8.680;2023-08-01T01:50:04;1.97;;;1.30;;
5688;SDS011;2869;50.432;8.680;2023-08-01T01:52:31;2.60;;;1.13;;
5688;SDS011;2869;50.432;8.680;2023-08-01T01:55:00;2.80;;;1.17;;
5688;SDS011;2869;50.432;8.680;2023-08-01T01:57:26;1.50;;;1.40;;
5688;SDS011;2869;50.432;8.680;2023-08-01T01:59:53;4.27;;;1.23;;
5688;SDS011;2869;50.432;8.680;2023-08-01T02:02:20;2.80;;;1.20;;
5688;SDS011;2869;50.432;8.680;2023-08-01T02:04:46;2.50;;;1.30;;
5688;SDS011;2869;50.432;8.680;2023-08-01T02:07:14;1.30;;;1.20;;
5688;SDS011;2869;50.432;8.680;2023-08-01T02:09:40;1.37;;;1.27;;
5688;SDS011;2869;50.432;8.680;2023-08-01T02:12:09;1.20;;;1.10;;
5688;SDS011;2869;50.432;8.680;2023-08-01T02:14:38;1.50;;;1.40;;
5688;SDS011;2869;50.432;8.680;2023-08-01T02:17:05;2.13;;;1.10;;
5688;SDS011;2869;50.432;8.680;2023-08-01T02:19:32;1.30;;;1.20;;
5688;SDS011;2869;50.432;8.680;2023-08-01T02:21:59;3.10;;;1.20;;
5688;SDS011;2869;50.432;8.680;2023-08-01T02:24:26;1.87;;;1.17;;
5688;SDS011;2869;50.432;8.680;2023-08-01T02:26:52;1.47;;;1.37;;
5688;SDS011;2869;50.432;8.680;2023-08-01T02:29:21;2.40;;;1.37;;
5688;SDS011;2869;50.432;8.680;2023-08-01T02:31:47;1.30;;;1.20;;
5688;SDS011;2869;50.432;8.680;2023-08-01T02:34:14;1.30;;;1.20;;
5688;SDS011;2869;50.432;8.680;2023-08-01T02:36:41;3.13;;;1.20;;
5688;SDS011;2869;50.432;8.680;2023-08-01T02:39:07;1.70;;;1.60;;
5688;SDS011;2869;50.432;8.680;2023-08-01T02:41:34;1.70;;;1.60;;
5688;SDS011;2869;50.432;8.680;2023-08-01T02:44:01;2.30;;;1.57;;
5688;SDS011;2869;50.432;8.680;2023-08-01T02:46:29;2.33;;;2.10;;
5688;SDS011;2869;50.432;8.680;2023-08-01T02:48:56;2.43;;;2.23;;
5688;SDS011;2869;50.432;8.680;2023-08-01T02:51:23;2.87;;;2.00;;
5688;SDS011;2869;50.432;8.680;2023-08-01T02:53:49;2.43;;;2.23;;
5688;SDS011;2869;50.432;8.680;2023-08-01T02:56:16;3.53;;;2.03;;
5688;SDS011;2869;50.432;8.680;2023-08-01T02:58:43;2.30;;;2.10;;
5688;SDS011;2869;50.432;8.680;2023-08-01T03:01:09;3.00;;;2.43;;
5688;SDS011;2869;50.432;8.680;2023-08-01T03:03:38;5.77;;;2.50;;
5688;SDS011;2869;50.432;8.680;2023-08-01T03:06:06;4.60;;;2.27;;
5688;SDS011;2869;50.432;8.680;2023-08-01T03:08:33;4.70;;;2.50;;
5688;SDS011;2869;50.432;8.680;2023-08-01T03:11:00;3.50;;;2.30;;
5688;SDS011;2869;50.432;8.680;2023-08-01T03:13:27;6.27;;;2.70;;
5688;SDS011;2869;50.432;8.680;2023-08-01T03:15:54;2.70;;;2.47;;
5688;SDS011;2869;50.432;8.680;2023-08-01T03:18:21;3.80;;;2.83;;
5688;SDS011;2869;50.432;8.680;2023-08-01T03:20:49;2.83;;;2.63;;
5688;SDS011;2869;50.432;8.680;2023-08-01T03:23:16;5.80;;;2.57;;
5688;SDS011;2869;50.432;8.680;2023-08-01T03:25:43;2.83;;;2.50;;
5688;SDS011;2869;50.432;8.680;2023-08-01T03:28:10;2.53;;;2.33;;
5688;SDS011;2869;50.432;8.680;2023-08-01T03:30:37;4.10;;;2.77;;
5688;SDS011;2869;50.432;8.680;2023-08-01T03:33:04;7.13;;;3.17;;
5688;SDS011;2869;50.432;8.680;2023-08-01T03:35:30;3.70;;;2.40;;
5688;SDS011;2869;50.432;8.680;2023-08-01T03:37:58;4.90;;;2.60;;
5688;SDS011;2869;50.432;8.680;2023-08-01T03:40:25;2.60;;;2.40;;
5688;SDS011;2869;50.432;8.680;2023-08-01T03:42:52;4.60;;;2.70;;
5688;SDS011;2869;50.432;8.680;2023-08-01T03:45:18;2.70;;;2.50;;
5688;SDS011;2869;50.432;8.680;2023-08-01T03:47:45;2.90;;;2.70;;
5688;SDS011;2869;50.432;8.680;2023-08-01T03:50:12;3.07;;;2.70;;
5688;SDS011;2869;50.432;8.680;2023-08-01T03:52:39;5.90;;;2.00;;
5688;SDS011;2869;50.432;8.680;2023-08-01T03:55:08;2.50;;;2.30;;
5688;SDS011;2869;50.432;8.680;2023-08-01T03:57:35;2.20;;;2.00;;
5688;SDS011;2869;50.432;8.680;2023-08-01T04:00:03;2.33;;;2.13;;
5688;SDS011;2869;50.432;8.680;2023-08-01T04:02:31;7.00;;;2.23;;
5688;SDS011;2869;50.432;8.680;2023-08-01T04:04:58;2.40;;;1.97;;
5688;SDS011;2869;50.432;8.680;2023-08-01T04:07:24;2.00;;;1.90;;
5688;SDS011;2869;50.432;8.680;2023-08-01T04:09:51;4.40;;;1.67;;
5688;SDS011;2869;50.432;8.680;2023-08-01T04:12:20;2.20;;;2.10;;
5688;SDS011;2869;50.432;8.680;2023-08-01T04:14:47;2.87;;;1.90;;
5688;SDS011;2869;50.432;8.680;2023-08-01T04:17:13;2.93;;;1.97;;
5688;SDS011;2869;50.432;8.680;2023-08-01T04:19:40;2.43;;;2.00;;
5688;SDS011;2869;50.432;8.680;2023-08-01T04:22:07;3.00;;;1.90;;
5688;SDS011;2869;50.432;8.680;2023-08-01T04:24:34;4.50;;;1.63;;
5688;SDS011;2869;50.432;8.680;2023-08-01T04:27:00;1.57;;;1.47;;
5688;SDS011;2869;50.432;8.680;2023-08-01T04:29:29;2.17;;;1.60;;
5688;SDS011;2869;50.432;8.680;2023-08-01T04:31:55;1.80;;;1.50;;
5688;SDS011;2869;50.432;8.680;2023-08-01T04:34:22;2.00;;;1.70;;
5688;SDS011;2869;50.432;8.680;2023-08-01T04:36:49;1.60;;;1.30;;
5688;SDS011;2869;50.432;8.680;2023-08-01T04:39:16;3.10;;;1.70;;
5688;SDS011;2869;50.432;8.680;2023-08-01T04:41:42;1.70;;;1.60;;
5688;SDS011;2869;50.432;8.680;2023-08-01T04:44:09;1.50;;;1.40;;
5688;SDS011;2869;50.432;8.680;2023-08-01T04:46:37;1.90;;;1.80;;
5688;SDS011;2869;50.432;8.680;2023-08-01T04:49:04;2.03;;;1.80;;
5688;SDS011;2869;50.432;8.680;2023-08-01T04:51:30;1.47;;;1.30;;
5688;SDS011;2869;50.432;8.680;2023-08-01T04:53:57;3.13;;;1.50;;
5688;SDS011;2869;50.432;8.680;2023-08-01T04:56:24;1.73;;;1.63;;
5688;SDS011;2869;50.432;8.680;2023-08-01T04:58:50;1.53;;;1.43;;
5688;SDS011;2869;50.432;8.680;2023-08-01T05:01:17;5.10;;;1.50;;
5688;SDS011;2869;50.432;8.680;2023-08-01T05:03:45;1.50;;;1.40;;
5688;SDS011;2869;50.432;8.680;2023-08-01T05:06:12;4.13;;;1.43;;
5688;SDS011;2869;50.432;8.680;2023-08-01T05:08:38;2.63;;;1.43;;
5688;SDS011;2869;50.432;8.680;2023-08-01T05:11:05;4.73;;;1.80;;
5688;SDS011;2869;50.432;8.680;2023-08-01T05:13:32;1.83;;;1.47;;
5688;SDS011;2869;50.432;8.680;2023-08-01T05:15:58;1.43;;;1.33;;
5688;SDS011;2869;50.432;8.680;2023-08-01T05:18:26;6.03;;;1.70;;
5688;SDS011;2869;50.432;8.680;2023-08-01T05:20:54;1.67;;;1.57;;
5688;SDS011;2869;50.432;8.680;2023-08-01T05:23:20;2.80;;;1.40;;
5688;SDS011;2869;50.432;8.680;2023-08-01T05:25:47;2.20;;;1.57;;
5688;SDS011;2869;50.432;8.680;2023-08-01T05:28:14;1.20;;;1.10;;
5688;SDS011;2869;50.432;8.680;2023-08-01T05:30:41;1.77;;;1.07;;
5688;SDS011;2869;50.432;8.680;2023-08-01T05:33:07;5.83;;;1.30;;
5688;SDS011;2869;50.432;8.680;2023-08-01T05:35:34;3.00;;;1.60;;
5688;SDS011;2869;50.432;8.680;2023-08-01T05:38:02;1.30;;;1.20;;
5688;SDS011;2869;50.432;8.680;2023-08-01T05:40:29;5.77;;;1.30;;
5688;SDS011;2869;50.432;8.680;2023-08-01T05:42:55;1.40;;;1.20;;
5688;SDS011;2869;50.432;8.680;2023-08-01T05:45:22;2.07;;;1.20;;
5688;SDS011;2869;50.432;8.680;2023-08-01T05:47:49;1.00;;;0.80;;
5688;SDS011;2869;50.432;8.680;2023-08-01T05:50:16;1.30;;;1.20;;
5688;SDS011;2869;50.432;8.680;2023-08-01T05:52:42;1.10;;;0.97;;
5688;SDS011;2869;50.432;8.680;2023-08-01T05:55:10;1.20;;;1.10;;
5688;SDS011;2869;50.432;8.680;2023-08-01T05:57:37;1.20;;;1.10;;
5688;SDS011;2869;50.432;8.680;2023-08-01T06:00:04;1.17;;;1.00;;
5688;SDS011;2869;50.432;8.680;2023-08-01T06:02:32;2.03;;;1.60;;
5688;SDS011;2869;50.432;8.680;2023-08-01T06:04:58;4.33;;;1.30;;
5688;SDS011;2869;50.432;8.680;2023-08-01T06:07:25;1.23;;;1.13;;
5688;SDS011;2869;50.432;8.680;2023-08-01T06:09:51;1.50;;;1.40;;
5688;SDS011;2869;50.432;8.680;2023-08-01T06:12:20;3.10;;;1.57;;
5688;SDS011;2869;50.432;8.680;2023-08-01T06:14:46;1.60;;;1.50;;
5688;SDS011;2869;50.432;8.680;2023-08-01T06:17:13;2.60;;;2.10;;
5688;SDS011;2869;50.432;8.680;2023-08-01T06:19:40;1.87;;;1.77;;
5688;SDS011;2869;50.432;8.680;2023-08-01T06:22:07;4.37;;;2.07;;
5688;SDS011;2869;50.432;8.680;2023-08-01T06:24:34;2.03;;;1.90;;
5688;SDS011;2869;50.432;8.680;2023-08-01T06:27:01;3.13;;;2.10;;
5688;SDS011;2869;50.432;8.680;2023-08-01T06:29:29;4.20;;;2.30;;
5688;SDS011;2869;50.432;8.680;2023-08-01T06:31:56;3.20;;;2.27;;
5688;SDS011;2869;50.432;8.680;2023-08-01T06:34:22;2.30;;;2.10;;
5688;SDS011;2869;50.432;8.680;2023-08-01T06:36:50;3.93;;;2.40;;
5688;SDS011;2869;50.432;8.680;2023-08-01T06:39:16;4.87;;;2.60;;
5688;SDS011;2869;50.432;8.680;2023-08-01T06:41:43;2.40;;;2.30;;
5688;SDS011;2869;50.432;8.680;2023-08-01T06:44:10;4.30;;;2.87;;
5688;SDS011;2869;50.432;8.680;2023-08-01T06:46:38;5.27;;;3.00;;
5688;SDS011;2869;50.432;8.680;2023-08-01T06:49:04;3.57;;;2.80;;
5688;SDS011;2869;50.432;8.680;2023-08-01T06:51:31;3.30;;;2.93;;
5688;SDS011;2869;50.432;8.680;2023-08-01T06:53:58;5.10;;;3.27;;
5688;SDS011;2869;50.432;8.680;2023-08-01T06:56:24;4.60;;;3.10;;
5688;SDS011;2869;50.432;8.680;2023-08-01T06:58:51;2.93;;;2.70;;
5688;SDS011;2869;50.432;8.680;2023-08-01T07:01:18;3.20;;;2.90;;
5688;SDS011;2869;50.432;8.680;2023-08-01T07:03:46;4.43;;;3.20;;
5688;SDS011;2869;50.432;8.680;2023-08-01T07:06:12;5.50;;;2.90;;
5688;SDS011;2869;50.432;8.680;2023-08-01T07:08:39;4.33;;;3.30;;
5688;SDS011;2869;50.432;8.680;2023-08-01T07:11:06;6.37;;;2.93;;
5688;SDS011;2869;50.432;8.680;2023-08-01T07:13:33;3.67;;;3.37;;
5688;SDS011;2869;50.432;8.680;2023-08-01T07:15:59;11.03;;;3.30;;
5688;SDS011;2869;50.432;8.680;2023-08-01T07:18:26;5.07;;;3.77;;
5688;SDS011;2869;50.432;8.680;2023-08-01T07:21:00;6.07;;;3.20;;
5688;SDS011;2869;50.432;8.680;2023-08-01T07:23:27;4.13;;;3.13;;
5688;SDS011;2869;50.432;8.680;2023-08-01T07:25:53;7.20;;;3.13;;
5688;SDS011;2869;50.432;8.680;2023-08-01T07:28:20;6.63;;;3.20;;
5688;SDS011;2869;50.432;8.680;2023-08-01T07:30:47;2.90;;;2.70;;
5688;SDS011;2869;50.432;8.680;2023-08-01T07:33:14;5.83;;;3.70;;
5688;SDS011;2869;50.432;8.680;2023-08-01T07:35:40;3.57;;;3.27;;
5688;SDS011;2869;50.432;8.680;2023-08-01T07:38:08;4.07;;;3.40;;
5688;SDS011;2869;50.432;8.680;2023-08-01T07:40:36;5.10;;;3.27;;
5688;SDS011;2869;50.432;8.680;2023-08-01T07:43:02;6.93;;;3.40;;
5688;SDS011;2869;50.432;8.680;2023-08-01T07:45:29;4.20;;;3.37;;
5688;SDS011;2869;50.432;8.680;2023-08-01T07:47:58;3.77;;;2.97;;
5688;SDS011;2869;50.432;8.680;2023-08-01T07:50:25;5.47;;;3.33;;
5688;SDS011;2869;50.432;8.680;2023-08-01T07:52:52;3.60;;;3.03;;
5688;SDS011;2869;50.432;8.680;2023-08-01T07:55:20;3.77;;;3.40;;
5688;SDS011;2869;50.432;8.680;2023-08-01T07:57:47;3.23;;;2.93;;
5688;SDS011;2869;50.432;8.680;2023-08-01T08:00:14;7.13;;;3.00;;
5688;SDS011;2869;50.432;8.680;2023-08-01T08:02:41;5.63;;;3.40;;
5688;SDS011;2869;50.432;8.680;2023-08-01T08:05:08;7.80;;;3.37;;
5688;SDS011;2869;50.432;8.680;2023-08-01T08:07:36;6.53;;;3.20;;
5688;SDS011;2869;50.432;8.680;2023-08-01T08:10:03;6.23;;;3.17;;
5688;SDS011;2869;50.432;8.680;2023-08-01T08:12:31;4.17;;;3.23;;
5688;SDS011;2869;50.432;8.680;2023-08-01T08:14:58;8.50;;;3.00;;
5688;SDS011;2869;50.432;8.680;2023-08-01T08:17:25;6.30;;;3.27;;
5688;SDS011;2869;50.432;8.680;2023-08-01T08:19:52;4.87;;;2.43;;
5688;SDS011;2869;50.432;8.680;2023-08-01T08:22:18;3.90;;;2.63;;
5688;SDS011;2869;50.432;8.680;2023-08-01T08:24:45;3.50;;;2.80;;
5688;SDS011;2869;50.432;8.680;2023-08-01T08:27:12;3.50;;;2.97;;
5688;SDS011;2869;50.432;8.680;2023-08-01T08:29:40;2.93;;;2.63;;
5688;SDS011;2869;50.432;8.680;2023-08-01T08:32:07;8.73;;;2.97;;
5688;SDS011;2869;50.432;8.680;2023-08-01T08:34:34;3.57;;;2.87;;
5688;SDS011;2869;50.432;8.680;2023-08-01T08:37:00;4.33;;;3.10;;
5688;SDS011;2869;50.432;8.680;2023-08-01T08:39:27;5.23;;;2.87;;
5688;SDS011;2869;50.432;8.680;2023-08-01T08:41:54;3.23;;;2.90;;
5688;SDS011;2869;50.432;8.680;2023-08-01T08:44:21;4.50;;;3.17;;
5688;SDS011;2869;50.432;8.680;2023-08-01T08:46:51;10.90;;;2.57;;
5688;SDS011;2869;50.432;8.680;2023-08-01T08:49:19;8.13;;;3.27;;
5688;SDS011;2869;50.432;8.680;2023-08-01T08:51:46;4.77;;;2.57;;
5688;SDS011;2869;50.432;8.680;2023-08-01T08:54:14;5.60;;;2.80;;
5688;SDS011;2869;50.432;8.680;2023-08-01T08:56:42;6.47;;;3.20;;
5688;SDS011;2869;50.432;8.680;2023-08-01T08:59:09;5.13;;;3.10;;
5688;SDS011;2869;50.432;8.680;2023-08-01T09:01:36;4.93;;;2.77;;
5688;SDS011;2869;50.432;8.680;2023-08-01T09:04:05;3.20;;;2.47;;
5688;SDS011;2869;50.432;8.680;2023-08-01T09:06:34;3.40;;;2.60;;
5688;SDS011;2869;50.432;8.680;2023-08-01T09:09:09;5.33;;;3.00;;
5688;SDS011;2869;50.432;8.680;2023-08-01T09:11:38;3.40;;;2.30;;
5688;SDS011;2869;50.432;8.680;2023-08-01T09:14:08;8.87;;;2.90;;
5688;SDS011;2869;50.432;8.680;2023-08-01T09:16:35;5.63;;;2.57;;
5688;SDS011;2869;50.432;8.680;2023-08-01T09:19:02;3.60;;;2.90;;
5688;SDS011;2869;50.432;8.680;2023-08-01T09:21:32;4.93;;;2.30;;
5688;SDS011;2869;50.432;8.680;2023-08-01T09:24:07;3.63;;;2.30;;
5688;SDS011;2869;50.432;8.680;2023-08-01T09:26:35;4.83;;;2.40;;
5688;SDS011;2869;50.432;8.680;2023-08-01T09:29:02;7.13;;;2.67;;
5688;SDS011;2869;50.432;8.680;2023-08-01T09:31:29;2.90;;;2.50;;
5688;SDS011;2869;50.432;8.680;2023-08-01T09:33:56;2.30;;;2.07;;
5688;SDS011;2869;50.432;8.680;2023-08-01T09:36:23;6.73;;;2.63;;
5688;SDS011;2869;50.432;8.680;2023-08-01T09:38:57;6.53;;;2.23;;
5688;SDS011;2869;50.432;8.680;2023-08-01T09:41:24;4.83;;;2.50;;
5688;SDS011;2869;50.432;8.680;2023-08-01T09:43:51;2.40;;;2.20;;
5688;SDS011;2869;50.432;8.680;2023-08-01T09:46:18;3.10;;;2.00;;
5688;SDS011;2869;50.432;8.680;2023-08-01T09:48:44;3.73;;;1.97;;
5688;SDS011;2869;50.432;8.680;2023-08-01T09:51:12;4.53;;;2.23;;
5688;SDS011;2869;50.432;8.680;2023-08-01T09:53:46;4.43;;;1.80;;
5688;SDS011;2869;50.432;8.680;2023-08-01T09:56:15;3.27;;;2.00;;
5688;SDS011;2869;50.432;8.680;2023-08-01T09:58:45;3.23;;;1.90;;
5688;SDS011;2869;50.432;8.680;2023-08-01T10:01:13;2.83;;;2.00;;
5688;SDS011;2869;50.432;8.680;2023-08-01T10:03:40;2.13;;;1.90;;
5688;SDS011;2869;50.432;8.680;2023-08-01T10:06:10;2.47;;;1.83;;
5688;SDS011;2869;50.432;8.680;2023-08-01T10:08:39;2.60;;;1.70;;
5688;SDS011;2869;50.432;8.680;2023-08-01T10:11:07;3.20;;;2.40;;
5688;SDS011;2869;50.432;8.680;2023-08-01T10:13:36;2.40;;;2.20;;
5688;SDS011;2869;50.432;8.680;2023-08-01T10:16:03;3.23;;;2.40;;
5688;SDS011;2869;50.432;8.680;2023-08-01T10:18:31;3.07;;;2.33;;
5688;SDS011;2869;50.432;8.680;2023-08-01T10:20:59;3.00;;;2.30;;
5688;SDS011;2869;50.432;8.680;2023-08-01T10:23:27;2.60;;;2.33;;
5688;SDS011;2869;50.432;8.680;2023-08-01T10:25:54;2.40;;;2.20;;
5688;SDS011;2869;50.432;8.680;2023-08-01T10:28:30;2.47;;;2.10;;
5688;SDS011;2869;50.432;8.680;2023-08-01T10:31:07;3.07;;;2.87;;
5688;SDS011;2869;50.432;8.680;2023-08-01T10:33:34;3.20;;;2.53;;
5688;SDS011;2869;50.432;8.680;2023-08-01T10:36:05;3.00;;;2.57;;
5688;SDS011;2869;50.432;8.680;2023-08-01T10:38:44;3.30;;;2.73;;
5688;SDS011;2869;50.432;8.680;2023-08-01T10:41:17;3.47;;;2.83;;
5688;SDS011;2869;50.432;8.680;2023-08-01T10:43:45;8.73;;;2.83;;
5688;SDS011;2869;50.432;8.680;2023-08-01T10:46:13;3.90;;;3.00;;
5688;SDS011;2869;50.432;8.680;2023-08-01T10:48:47;2.70;;;2.50;;
5688;SDS011;2869;50.432;8.680;2023-08-01T10:51:14;7.30;;;3.10;;
5688;SDS011;2869;50.432;8.680;2023-08-01T10:53:41;3.30;;;3.00;;
5688;SDS011;2869;50.432;8.680;2023-08-01T10:56:14;3.13;;;2.90;;
5688;SDS011;2869;50.432;8.680;2023-08-01T10:58:42;3.73;;;2.37;;
5688;SDS011;2869;50.432;8.680;2023-08-01T11:01:09;3.00;;;2.70;;
5688;SDS011;2869;50.432;8.680;2023-08-01T11:03:37;5.00;;;2.30;;
5688;SDS011;2869;50.432;8.680;2023-08-01T11:06:05;3.97;;;2.87;;
5688;SDS011;2869;50.432;8.680;2023-08-01T11:08:35;7.60;;;3.17;;
5688;SDS011;2869;50.432;8.680;2023-08-01T11:11:03;10.50;;;2.80;;
5688;SDS011;2869;50.432;8.680;2023-08-01T11:13:31;2.80;;;2.60;;
5688;SDS011;2869;50.432;8.680;2023-08-01T11:16:00;6.93;;;3.30;;
5688;SDS011;2869;50.432;8.680;2023-08-01T11:18:27;2.43;;;2.23;;
5688;SDS011;2869;50.432;8.680;2023-08-01T11:20:56;3.63;;;2.70;;
5688;SDS011;2869;50.432;8.680;2023-08-01T11:23:27;3.20;;;2.80;;
5688;SDS011;2869;50.432;8.680;2023-08-01T11:25:54;3.33;;;3.03;;
5688;SDS011;2869;50.432;8.680;2023-08-01T11:28:21;8.00;;;3.07;;
5688;SDS011;2869;50.432;8.680;2023-08-01T11:30:49;3.00;;;2.70;;
5688;SDS011;2869;50.432;8.680;2023-08-01T11:33:17;2.70;;;2.50;;
5688;SDS011;2869;50.432;8.680;2023-08-01T11:35:45;2.60;;;2.40;;
5688;SDS011;2869;50.432;8.680;2023-08-01T11:38:14;3.47;;;2.70;;
5688;SDS011;2869;50.432;8.680;2023-08-01T11:40:41;2.80;;;2.37;;
5688;SDS011;2869;50.432;8.680;2023-08-01T11:43:08;4.70;;;2.87;;
5688;SDS011;2869;50.432;8.680;2023-08-01T11:45:35;4.80;;;2.80;;
5688;SDS011;2869;50.432;8.680;2023-08-01T11:48:02;4.10;;;2.57;;
5688;SDS011;2869;50.432;8.680;2023-08-01T11:50:29;2.70;;;2.47;;
5688;SDS011;2869;50.432;8.680;2023-08-01T11:52:55;2.60;;;2.40;;
5688;SDS011;2869;50.432;8.680;2023-08-01T11:55:25;3.97;;;2.43;;
5688;SDS011;2869;50.432;8.680;2023-08-01T11:57:53;2.47;;;2.27;;
5688;SDS011;2869;50.432;8.680;2023-08-01T12:00:21;4.27;;;2.20;;
5688;SDS011;2869;50.432;8.680;2023-08-01T12:02:48;4.90;;;2.00;;
5688;SDS011;2869;50.432;8.680;2023-08-01T12:05:20;2.50;;;2.30;;
5688;SDS011;2869;50.432;8.680;2023-08-01T12:07:48;4.20;;;3.17;;
5688;SDS011;2869;50.432;8.680;2023-08-01T12:10:14;4.30;;;2.70;;
5688;SDS011;2869;50.432;8.680;2023-08-01T12:12:44;3.43;;;2.83;;
5688;SDS011;2869;50.432;8.680;2023-08-01T12:15:12;4.20;;;2.83;;
5688;SDS011;2869;50.432;8.680;2023-08-01T12:17:39;2.77;;;2.50;;
5688;SDS011;2869;50.432;8.680;2023-08-01T12:20:06;3.43;;;2.63;;
5688;SDS011;2869;50.432;8.680;2023-08-01T12:22:34;3.27;;;2.77;;
5688;SDS011;2869;50.432;8.680;2023-08-01T12:25:01;2.60;;;2.40;;
5688;SDS011;2869;50.432;8.680;2023-08-01T12:27:28;2.40;;;2.20;;
5688;SDS011;2869;50.432;8.680;2023-08-01T12:29:56;6.27;;;2.70;;
5688;SDS011;2869;50.432;8.680;2023-08-01T12:32:22;2.20;;;2.00;;
5688;SDS011;2869;50.432;8.680;2023-08-01T12:34:49;6.20;;;2.00;;
5688;SDS011;2869;50.432;8.680;2023-08-01T12:37:16;6.43;;;2.30;;
5688;SDS011;2869;50.432;8.680;2023-08-01T12:39:42;3.70;;;2.40;;
5688;SDS011;2869;50.432;8.680;2023-08-01T12:42:09;3.50;;;2.50;;
5688;SDS011;2869;50.432;8.680;2023-08-01T12:44:36;2.53;;;2.33;;
5688;SDS011;2869;50.432;8.680;2023-08-01T12:47:04;4.33;;;2.30;;
5688;SDS011;2869;50.432;8.680;2023-08-01T12:49:32;2.80;;;2.10;;
5688;SDS011;2869;50.432;8.680;2023-08-01T12:51:59;4.97;;;2.90;;
5688;SDS011;2869;50.432;8.680;2023-08-01T12:54:26;4.57;;;2.70;;
5688;SDS011;2869;50.432;8.680;2023-08-01T12:56:52;3.60;;;2.40;;
5688;SDS011;2869;50.432;8.680;2023-08-01T12:59:19;4.93;;;2.70;;
5688;SDS011;2869;50.432;8.680;2023-08-01T13:01:46;3.60;;;2.40;;
5688;SDS011;2869;50.432;8.680;2023-08-01T13:04:14;7.40;;;2.23;;
5688;SDS011;2869;50.432;8.680;2023-08-01T13:06:40;2.20;;;2.00;;
5688;SDS011;2869;50.432;8.680;2023-08-01T13:09:07;2.57;;;2.17;;
5688;SDS011;2869;50.432;8.680;2023-08-01T13:11:34;3.23;;;2.20;;
5688;SDS011;2869;50.432;8.680;2023-08-01T13:14:00;2.67;;;2.30;;
5688;SDS011;2869;50.432;8.680;2023-08-01T13:16:27;2.27;;;2.07;;
5688;SDS011;2869;50.432;8.680;2023-08-01T13:18:53;4.07;;;2.00;;
5688;SDS011;2869;50.432;8.680;2023-08-01T13:21:23;5.37;;;2.30;;
5688;SDS011;2869;50.432;8.680;2023-08-01T13:23:49;4.80;;;2.20;;
5688;SDS011;2869;50.432;8.680;2023-08-01T13:26:16;3.37;;;2.40;;
5688;SDS011;2869;50.432;8.680;2023-08-01T13:28:43;5.93;;;2.57;;
5688;SDS011;2869;50.432;8.680;2023-08-01T13:31:09;3.53;;;1.90;;
5688;SDS011;2869;50.432;8.680;2023-08-01T13:33:36;3.50;;;2.03;;
5688;SDS011;2869;50.432;8.680;2023-08-01T13:36:03;3.20;;;2.00;;
5688;SDS011;2869;50.432;8.680;2023-08-01T13:38:32;2.67;;;1.90;;
5688;SDS011;2869;50.432;8.680;2023-08-01T13:40:59;3.77;;;2.37;;
5688;SDS011;2869;50.432;8.680;2023-08-01T13:43:26;4.23;;;2.20;;
5688;SDS011;2869;50.432;8.680;2023-08-01T13:45:53;4.33;;;2.30;;
5688;SDS011;2869;50.432;8.680;2023-08-01T13:48:19;2.73;;;2.43;;
5688;SDS011;2869;50.432;8.680;2023-08-01T13:50:46;2.43;;;2.23;;
5688;SDS011;2869;50.432;8.680;2023-08-01T13:53:13;4.33;;;2.60;;
5688;SDS011;2869;50.432;8.680;2023-08-01T13:55:42;3.37;;;2.40;;
5688;SDS011;2869;50.432;8.680;2023-08-01T13:58:09;4.47;;;2.27;;
5688;SDS011;2869;50.432;8.680;2023-08-01T14:00:35;2.57;;;2.33;;
5688;SDS011;2869;50.432;8.680;2023-08-01T14:03:02;3.30;;;1.87;;
5688;SDS011;2869;50.432;8.680;2023-08-01T14:05:29;2.37;;;2.17;;
5688;SDS011;2869;50.432;8.680;2023-08-01T14:07:56;2.77;;;2.40;;
5688;SDS011;2869;50.432;8.680;2023-08-01T14:10:24;3.87;;;2.37;;
5688;SDS011;2869;50.432;8.680;2023-08-01T14:12:52;3.80;;;2.20;;
5688;SDS011;2869;50.432;8.680;2023-08-01T14:15:19;3.30;;;2.20;;
5688;SDS011;2869;50.432;8.680;2023-08-01T14:17:47;4.90;;;2.43;;
5688;SDS011;2869;50.432;8.680;2023-08-01T14:20:13;4.63;;;2.53;;
5688;SDS011;2869;50.432;8.680;2023-08-01T14:22:41;3.60;;;2.27;;
5688;SDS011;2869;50.432;8.680;2023-08-01T14:25:08;3.47;;;1.87;;
5688;SDS011;2869;50.432;8.680;2023-08-01T14:27:35;2.57;;;2.10;;
5688;SDS011;2869;50.432;8.680;2023-08-01T14:30:04;4.17;;;2.43;;
5688;SDS011;2869;50.432;8.680;2023-08-01T14:32:31;2.93;;;2.17;;
5688;SDS011;2869;50.432;8.680;2023-08-01T14:34:58;2.57;;;2.20;;
5688;SDS011;2869;50.432;8.680;2023-08-01T14:37:25;4.70;;;2.40;;
5688;SDS011;2869;50.432;8.680;2023-08-01T14:39:52;5.23;;;2.30;;
5688;SDS011;2869;50.432;8.680;2023-08-01T14:42:19;4.23;;;2.10;;
5688;SDS011;2869;50.432;8.680;2023-08-01T14:44:50;3.27;;;2.10;;
5688;SDS011;2869;50.432;8.680;2023-08-01T14:47:19;3.97;;;2.10;;
5688;SDS011;2869;50.432;8.680;2023-08-01T14:49:46;4.00;;;2.33;;
5688;SDS011;2869;50.432;8.680;2023-08-01T14:52:12;3.70;;;2.00;;
5688;SDS011;2869;50.432;8.680;2023-08-01T14:54:39;5.67;;;2.10;;
5688;SDS011;2869;50.432;8.680;2023-08-01T14:57:06;2.10;;;1.90;;
5688;SDS011;2869;50.432;8.680;2023-08-01T14:59:33;2.53;;;1.80;;
5688;SDS011;2869;50.432;8.680;2023-08-01T15:01:59;4.73;;;2.00;;
5688;SDS011;2869;50.432;8.680;2023-08-01T15:04:28;4.87;;;1.90;;
5688;SDS011;2869;50.432;8.680;2023-08-01T15:06:54;3.27;;;1.97;;
5688;SDS011;2869;50.432;8.680;2023-08-01T15:09:21;3.03;;;2.00;;
5688;SDS011;2869;50.432;8.680;2023-08-01T15:11:48;2.90;;;2.03;;
5688;SDS011;2869;50.432;8.680;2023-08-01T15:14:14;6.50;;;1.77;;
5688;SDS011;2869;50.432;8.680;2023-08-01T15:16:41;4.17;;;1.90;;